createdAt,value
2022-08-24T00:02:24.164Z,20.50
2022-08-24T00:04:54.336Z,20.60
2022-08-24T00:07:27.378Z,20.40
2022-08-24T00:09:57.125Z,20.40
2022-08-24T00:12:25.826Z,20.40
2022-08-24T00:14:54.898Z,20.40
2022-08-24T00:17:23.167Z,20.20
2022-08-24T00:19:51.311Z,20.30
2022-08-24T00:22:21.715Z,20.40
2022-08-24T00:24:49.952Z,20.30
2022-08-24T00:27:18.431Z,20.20
2022-08-24T00:29:46.693Z,20.10
2022-08-24T00:32:15.014Z,20.20
2022-08-24T00:34:58.145Z,20.20
2022-08-24T00:37:29.869Z,19.90
2022-08-24T00:40:00.872Z,19.90
2022-08-24T00:42:29.393Z,19.80
2022-08-24T00:44:58.318Z,19.90
2022-08-24T00:47:33.205Z,19.90
2022-08-24T00:50:06.098Z,19.90
2022-08-24T00:52:40.367Z,19.80
2022-08-24T00:55:13.045Z,19.90
2022-08-24T00:57:45.565Z,19.90
2022-08-24T01:00:18.657Z,19.90
2022-08-24T01:02:50.269Z,20.00
2022-08-24T01:05:19.374Z,19.90
2022-08-24T01:07:50.850Z,19.90
2022-08-24T01:10:22.467Z,19.90
2022-08-24T01:13:00.608Z,19.90
2022-08-24T01:15:30.931Z,19.80
2022-08-24T01:18:16.818Z,19.80
2022-08-24T01:20:49.557Z,19.70
2022-08-24T01:23:36.595Z,19.70
2022-08-24T01:26:05.660Z,19.70
2022-08-24T01:28:37.091Z,19.70
2022-08-24T01:31:05.922Z,19.60
2022-08-24T01:33:34.471Z,19.60
2022-08-24T01:36:06.267Z,19.60
2022-08-24T01:38:36.326Z,19.40
2022-08-24T01:41:07.350Z,19.30
2022-08-24T01:43:37.316Z,19.40
2022-08-24T01:46:08.501Z,19.30
2022-08-24T01:48:36.939Z,19.30
2022-08-24T01:51:05.568Z,19.20
2022-08-24T01:53:35.263Z,19.20
2022-08-24T01:56:03.822Z,19.20
2022-08-24T01:58:32.123Z,19.20
2022-08-24T02:01:01.191Z,19.20
2022-08-24T02:03:30.628Z,19.10
2022-08-24T02:06:00.488Z,19.10
2022-08-24T02:08:30.466Z,19.10
2022-08-24T02:11:00.293Z,19.10
2022-08-24T02:13:28.889Z,19.00
2022-08-24T02:15:58.005Z,19.00
2022-08-24T02:18:26.482Z,19.00
2022-08-24T02:20:55.095Z,18.90
2022-08-24T02:23:23.585Z,18.80
2022-08-24T02:25:52.432Z,18.70
2022-08-24T02:28:22.243Z,18.70
2022-08-24T02:30:51.390Z,18.70
2022-08-24T02:33:19.728Z,18.60
2022-08-24T02:35:48.342Z,18.40
2022-08-24T02:38:16.738Z,18.40
2022-08-24T02:40:45.327Z,18.50
2022-08-24T02:43:14.621Z,18.50
2022-08-24T02:45:50.190Z,18.50
2022-08-24T02:48:20.682Z,18.50
2022-08-24T02:50:51.340Z,18.60
2022-08-24T02:53:21.931Z,18.50
2022-08-24T02:55:50.396Z,18.50
2022-08-24T02:58:19.692Z,18.60
2022-08-24T03:00:51.056Z,18.50
2022-08-24T03:03:21.870Z,18.50
2022-08-24T03:05:50.237Z,18.40
2022-08-24T03:08:18.666Z,18.40
2022-08-24T03:10:47.513Z,18.50
2022-08-24T03:13:15.880Z,18.50
2022-08-24T03:15:46.434Z,18.50
2022-08-24T03:18:16.518Z,18.30
2022-08-24T03:20:47.166Z,18.30
2022-08-24T03:23:15.772Z,18.30
2022-08-24T03:25:45.832Z,18.40
2022-08-24T03:28:14.484Z,18.40
2022-08-24T03:30:46.867Z,18.40
2022-08-24T03:33:20.052Z,18.40
2022-08-24T03:35:49.569Z,18.40
2022-08-24T03:38:19.588Z,18.30
2022-08-24T03:40:48.090Z,18.30
2022-08-24T03:43:30.356Z,18.20
2022-08-24T03:46:01.018Z,18.20
2022-08-24T03:48:31.118Z,18.20
2022-08-24T03:50:59.401Z,18.20
2022-08-24T03:53:30.791Z,18.20
2022-08-24T03:56:00.457Z,18.30
2022-08-24T03:58:36.810Z,18.20
2022-08-24T04:01:06.669Z,18.20
2022-08-24T04:03:38.497Z,18.30
2022-08-24T04:06:08.387Z,18.30
2022-08-24T04:08:37.188Z,18.30
2022-08-24T04:11:12.729Z,18.20
2022-08-24T04:13:41.448Z,18.20
2022-08-24T04:16:11.558Z,18.10
2022-08-24T04:18:42.598Z,18.10
2022-08-24T04:21:18.301Z,18.30
2022-08-24T04:23:48.072Z,18.30
2022-08-24T04:26:35.051Z,18.20
2022-08-24T04:29:11.016Z,18.20
2022-08-24T04:31:45.068Z,18.20
2022-08-24T04:34:16.799Z,18.20
2022-08-24T04:36:46.307Z,18.20
2022-08-24T04:39:15.262Z,18.10
2022-08-24T04:42:22.080Z,18.10
2022-08-24T04:44:51.621Z,18.30
2022-08-24T04:47:23.194Z,18.30
2022-08-24T04:54:52.529Z,18.70
2022-08-24T04:57:24.479Z,18.60
2022-08-24T04:59:57.572Z,18.80
2022-08-24T05:02:29.070Z,18.80
2022-08-24T05:05:00.539Z,18.80
2022-08-24T05:07:30.001Z,18.80
2022-08-24T05:09:59.079Z,19.00
2022-08-24T05:12:28.023Z,19.20
2022-08-24T05:15:02.828Z,19.30
2022-08-24T05:17:36.676Z,19.50
2022-08-24T05:20:09.281Z,19.70
2022-08-24T05:22:38.249Z,19.80
2022-08-24T05:25:07.512Z,20.00
2022-08-24T05:27:37.015Z,20.00
2022-08-24T05:30:07.012Z,20.20
2022-08-24T05:32:40.518Z,20.00
2022-08-24T05:35:11.187Z,20.10
2022-08-24T05:37:40.661Z,20.20
2022-08-24T05:40:18.244Z,20.20
2022-08-24T05:42:51.110Z,20.30
2022-08-24T05:45:20.733Z,20.30
2022-08-24T05:47:51.644Z,20.30
2022-08-24T05:50:43.938Z,20.20
2022-08-24T05:53:14.863Z,19.90
2022-08-24T05:55:45.303Z,19.90
2022-08-24T05:58:22.850Z,19.90
2022-08-24T06:01:00.343Z,20.00
2022-08-24T06:03:30.842Z,20.00
2022-08-24T06:06:00.773Z,20.10
2022-08-24T06:08:30.092Z,20.10
2022-08-24T06:11:01.086Z,20.20
2022-08-24T06:13:29.825Z,20.40
2022-08-24T06:16:20.885Z,20.70
2022-08-24T06:18:52.201Z,20.90
2022-08-24T06:21:28.215Z,21.10
2022-08-24T06:23:58.563Z,21.20
2022-08-24T06:26:45.165Z,21.30
2022-08-24T06:29:19.743Z,21.30
2022-08-24T06:31:54.257Z,21.20
2022-08-24T06:34:26.186Z,21.10
2022-08-24T06:36:56.509Z,21.10
2022-08-24T06:39:27.463Z,21.30
2022-08-24T06:41:58.249Z,21.50
2022-08-24T06:44:34.655Z,22.40
2022-08-24T06:47:21.344Z,22.30
2022-08-24T06:49:54.968Z,22.60
2022-08-24T06:52:24.961Z,22.90
2022-08-24T06:54:53.279Z,23.40
2022-08-24T06:57:21.705Z,23.40
2022-08-24T06:59:50.405Z,23.00
2022-08-24T07:02:28.390Z,23.30
2022-08-24T07:04:56.959Z,23.50
2022-08-24T07:08:02.124Z,23.50
2022-08-24T07:10:32.423Z,23.60
2022-08-24T07:13:00.881Z,23.70
2022-08-24T07:15:29.319Z,23.70
2022-08-24T07:18:10.207Z,23.70
2022-08-24T07:20:42.842Z,23.60
2022-08-24T07:23:41.010Z,23.40
2022-08-24T07:26:20.878Z,23.50
2022-08-24T07:28:53.769Z,23.60
2022-08-24T07:31:25.048Z,23.70
2022-08-24T07:34:05.690Z,23.70
2022-08-24T07:36:35.239Z,23.70
2022-08-24T07:39:06.257Z,23.80
2022-08-24T07:41:56.517Z,23.90
2022-08-24T07:44:32.412Z,24.20
2022-08-24T07:47:15.098Z,24.30
2022-08-24T07:49:49.355Z,24.40
2022-08-24T07:52:17.681Z,24.30
2022-08-24T07:54:48.294Z,24.30
2022-08-24T07:57:21.505Z,24.30
2022-08-24T07:59:50.752Z,24.70
2022-08-24T08:02:19.569Z,24.60
2022-08-24T08:04:56.988Z,24.90
2022-08-24T08:07:26.426Z,24.90
2022-08-24T08:09:56.267Z,25.10
2022-08-24T08:12:25.204Z,24.90
2022-08-24T08:14:57.414Z,25.00
2022-08-24T08:17:25.783Z,25.00
2022-08-24T08:19:54.390Z,25.30
2022-08-24T08:22:40.047Z,25.30
2022-08-24T08:25:38.515Z,25.50
2022-08-24T08:28:25.023Z,25.70
2022-08-24T08:30:55.415Z,25.60
2022-08-24T08:36:09.216Z,25.50
2022-08-24T08:38:43.072Z,25.70
2022-08-24T08:41:59.010Z,25.70
2022-08-24T08:44:46.196Z,25.90
2022-08-24T08:47:43.817Z,26.10
2022-08-24T08:50:23.933Z,25.90
2022-08-24T08:53:25.479Z,26.10
2022-08-24T08:56:04.132Z,26.20
2022-08-24T08:58:57.701Z,26.60
2022-08-24T09:01:44.212Z,26.60
2022-08-24T09:04:55.992Z,26.70
2022-08-24T09:07:43.628Z,26.40
2022-08-24T09:10:43.643Z,26.40
2022-08-24T09:13:33.812Z,26.80
2022-08-24T09:16:38.425Z,27.10
2022-08-24T09:19:23.141Z,27.00
2022-08-24T09:22:12.209Z,27.10
2022-08-24T09:25:06.323Z,26.90
2022-08-24T09:27:56.969Z,27.10
2022-08-24T09:30:27.614Z,27.20
2022-08-24T09:33:09.503Z,27.30
2022-08-24T09:36:08.624Z,27.60
2022-08-24T09:38:59.870Z,27.40
2022-08-24T09:41:55.621Z,27.50
2022-08-24T09:45:13.607Z,27.90
2022-08-24T09:48:15.734Z,28.00
2022-08-24T09:51:07.813Z,27.80
2022-08-24T09:54:18.257Z,28.00
2022-08-24T09:57:11.750Z,28.10
2022-08-24T10:00:06.322Z,27.90
2022-08-24T10:03:12.211Z,28.30
2022-08-24T10:06:01.136Z,28.60
2022-08-24T10:08:43.821Z,28.30
2022-08-24T10:11:23.190Z,28.30
2022-08-24T10:14:02.255Z,28.50
2022-08-24T10:16:41.765Z,28.70
2022-08-24T10:19:30.492Z,28.70
2022-08-24T10:22:08.882Z,28.80
2022-08-24T10:24:55.512Z,28.90
2022-08-24T10:27:42.966Z,28.80
2022-08-24T10:30:53.535Z,28.60
2022-08-24T10:33:24.305Z,28.70
2022-08-24T10:36:21.521Z,29.00
2022-08-24T10:39:09.015Z,29.30
2022-08-24T10:42:37.294Z,29.40
2022-08-24T10:45:26.067Z,29.20
2022-08-24T10:48:12.418Z,29.10
2022-08-24T10:50:53.970Z,29.40
2022-08-24T10:53:27.408Z,29.20
2022-08-24T10:56:15.591Z,29.40
2022-08-24T10:58:56.705Z,29.40
2022-08-24T11:01:30.230Z,29.40
2022-08-24T11:04:03.051Z,29.50
2022-08-24T11:06:33.621Z,29.50
2022-08-24T11:09:07.968Z,29.40
2022-08-24T11:11:38.548Z,29.30
2022-08-24T11:14:23.632Z,30.00
2022-08-24T11:16:57.468Z,30.10
2022-08-24T11:19:34.991Z,30.30
2022-08-24T11:22:22.449Z,30.20
2022-08-24T11:24:56.035Z,30.20
2022-08-24T11:27:31.449Z,30.00
2022-08-24T11:30:02.915Z,30.20
2022-08-24T11:32:39.861Z,30.50
2022-08-24T11:35:17.682Z,30.60
2022-08-24T11:37:46.423Z,30.50
2022-08-24T11:40:18.016Z,30.60
2022-08-24T11:43:11.737Z,30.80
2022-08-24T11:45:48.176Z,30.90
2022-08-24T11:48:30.231Z,30.90
2022-08-24T11:51:06.250Z,30.70
2022-08-24T11:56:25.870Z,30.90
2022-08-24T11:59:00.696Z,31.20
2022-08-24T12:01:35.988Z,31.20
2022-08-24T12:04:42.904Z,31.10
2022-08-24T12:07:25.430Z,30.90
2022-08-24T12:10:04.432Z,31.00
2022-08-24T12:12:41.524Z,31.30
2022-08-24T12:15:16.623Z,31.60
2022-08-24T12:17:52.425Z,31.60
2022-08-24T12:20:29.064Z,31.30
2022-08-24T12:22:59.918Z,31.30
2022-08-24T12:25:49.330Z,31.30
2022-08-24T12:28:25.657Z,31.20
2022-08-24T12:30:56.173Z,31.10
2022-08-24T12:33:32.316Z,30.90
2022-08-24T12:36:17.012Z,30.90
2022-08-24T12:38:51.068Z,31.10
2022-08-24T12:41:28.144Z,31.30
2022-08-24T12:44:04.966Z,31.60
2022-08-24T12:46:33.515Z,31.50
2022-08-24T12:49:06.545Z,31.20
2022-08-24T12:51:56.344Z,31.40
2022-08-24T12:54:43.015Z,31.40
2022-08-24T12:57:26.021Z,31.40
2022-08-24T12:59:58.260Z,31.60
2022-08-24T13:02:31.994Z,31.60
2022-08-24T13:05:05.871Z,31.60
2022-08-24T13:07:42.771Z,31.60
2022-08-24T13:10:16.126Z,31.60
2022-08-24T13:13:16.511Z,31.50
2022-08-24T13:16:02.938Z,32.00
2022-08-24T13:19:07.671Z,31.80
2022-08-24T13:21:52.527Z,31.80
2022-08-24T13:25:00.351Z,31.30
2022-08-24T13:28:01.375Z,31.50
2022-08-24T13:30:35.786Z,31.70
2022-08-24T13:33:10.492Z,31.80
2022-08-24T13:35:55.589Z,31.40
2022-08-24T13:38:45.214Z,31.50
2022-08-24T13:41:27.501Z,31.40
2022-08-24T13:44:03.582Z,31.50
2022-08-24T13:46:46.421Z,31.60
2022-08-24T13:49:31.203Z,31.70
2022-08-24T13:52:11.588Z,31.80
2022-08-24T13:54:49.942Z,31.70
2022-08-24T13:57:35.544Z,31.60
2022-08-24T14:00:30.952Z,31.60
2022-08-24T14:03:12.152Z,31.40
2022-08-24T14:05:50.293Z,31.60
2022-08-24T14:08:46.238Z,31.80
2022-08-24T14:11:22.187Z,31.80
2022-08-24T14:14:07.218Z,31.70
2022-08-24T14:17:04.152Z,31.70
2022-08-24T14:19:44.639Z,31.50
2022-08-24T14:22:24.880Z,31.40
2022-08-24T14:25:12.881Z,31.40
2022-08-24T14:27:44.188Z,31.50
2022-08-24T14:30:54.505Z,31.80
2022-08-24T14:33:30.671Z,31.90
2022-08-24T14:36:11.893Z,31.80
2022-08-24T14:39:05.153Z,31.70
2022-08-24T14:41:51.850Z,31.70
2022-08-24T14:44:45.882Z,31.70
2022-08-24T14:47:23.598Z,31.60
2022-08-24T14:50:13.092Z,31.60
2022-08-24T14:52:55.968Z,31.50
2022-08-24T14:55:35.504Z,31.50
2022-08-24T14:58:30.191Z,31.80
2022-08-24T15:01:26.311Z,31.70
2022-08-24T15:04:27.436Z,31.80
2022-08-24T15:07:26.855Z,31.50
2022-08-24T15:09:57.011Z,31.30
2022-08-24T15:12:37.184Z,31.30
2022-08-24T15:15:21.657Z,31.40
2022-08-24T15:18:01.513Z,31.20
2022-08-24T15:20:47.903Z,31.30
2022-08-24T15:23:21.469Z,31.40
2022-08-24T15:25:56.581Z,31.50
2022-08-24T15:28:29.151Z,31.40
2022-08-24T15:31:00.705Z,31.40
2022-08-24T15:33:32.893Z,31.60
2022-08-24T15:36:11.993Z,31.70
2022-08-24T15:38:41.769Z,31.60
2022-08-24T15:41:17.172Z,31.60
2022-08-24T15:43:54.573Z,31.60
2022-08-24T15:46:27.896Z,31.70
2022-08-24T15:49:03.779Z,31.80
2022-08-24T15:51:47.728Z,31.60
2022-08-24T15:54:30.776Z,31.60
2022-08-24T15:57:04.840Z,31.40
2022-08-24T15:59:48.935Z,31.60
2022-08-24T16:02:26.084Z,31.40
2022-08-24T16:05:03.821Z,31.40
2022-08-24T16:07:35.967Z,31.40
2022-08-24T16:10:10.329Z,31.40
2022-08-24T16:12:39.559Z,31.20
2022-08-24T16:15:19.287Z,31.20
2022-08-24T16:17:51.533Z,31.30
2022-08-24T16:20:33.033Z,31.30
2022-08-24T16:23:04.790Z,31.40
2022-08-24T16:25:34.797Z,31.50
2022-08-24T16:28:07.969Z,31.50
2022-08-24T16:30:51.003Z,31.40
2022-08-24T16:33:44.110Z,31.30
2022-08-24T16:36:15.675Z,31.30
2022-08-24T16:38:48.917Z,31.20
2022-08-24T16:41:19.961Z,31.20
2022-08-24T16:43:48.976Z,31.10
2022-08-24T16:46:23.607Z,31.10
2022-08-24T16:48:54.207Z,31.10
2022-08-24T16:51:24.518Z,31.00
2022-08-24T16:53:53.795Z,30.90
2022-08-24T16:56:22.888Z,30.90
2022-08-24T16:58:52.705Z,30.90
2022-08-24T17:01:22.800Z,30.90
2022-08-24T17:03:51.284Z,31.00
2022-08-24T17:06:20.862Z,31.00
2022-08-24T17:08:49.254Z,31.00
2022-08-24T17:11:19.377Z,31.00
2022-08-24T17:13:50.260Z,31.00
2022-08-24T17:16:20.416Z,31.00
2022-08-24T17:18:50.283Z,30.90
2022-08-24T17:21:20.300Z,30.80
2022-08-24T17:23:48.848Z,30.80
2022-08-24T17:26:21.854Z,30.70
2022-08-24T17:28:54.430Z,30.70
2022-08-24T17:31:24.716Z,30.60
2022-08-24T17:33:54.682Z,30.70
2022-08-24T17:36:25.148Z,30.70
2022-08-24T17:38:56.144Z,30.70
2022-08-24T17:41:26.049Z,30.70
2022-08-24T17:43:55.138Z,30.60
2022-08-24T17:46:23.996Z,30.60
2022-08-24T17:48:52.529Z,30.50
2022-08-24T17:51:22.372Z,30.40
2022-08-24T17:53:50.968Z,30.40
2022-08-24T17:56:19.794Z,30.40
2022-08-24T17:59:05.333Z,30.40
2022-08-24T18:01:33.840Z,30.30
2022-08-24T18:04:02.399Z,30.30
2022-08-24T18:06:32.601Z,30.30
2022-08-24T18:09:04.862Z,30.20
2022-08-24T18:11:33.422Z,30.20
2022-08-24T18:14:04.243Z,30.10
2022-08-24T18:16:32.552Z,30.10
2022-08-24T18:19:01.762Z,30.00
2022-08-24T18:21:31.420Z,30.00
2022-08-24T18:24:01.505Z,29.90
2022-08-24T18:26:31.334Z,29.90
2022-08-24T18:29:11.494Z,29.80
2022-08-24T18:31:42.660Z,29.80
2022-08-24T18:34:13.238Z,29.70
2022-08-24T18:36:42.835Z,29.60
2022-08-24T18:39:11.132Z,29.60
2022-08-24T18:41:42.541Z,29.50
2022-08-24T18:44:15.592Z,29.20
2022-08-24T18:46:47.867Z,28.90
2022-08-24T18:49:16.663Z,28.70
2022-08-24T18:51:48.190Z,28.40
2022-08-24T18:54:19.578Z,28.10
2022-08-24T18:56:48.142Z,27.70
2022-08-24T18:59:18.562Z,27.40
2022-08-24T19:02:07.564Z,27.30
2022-08-24T19:04:41.784Z,27.00
2022-08-24T19:07:11.665Z,26.80
2022-08-24T19:09:40.107Z,26.70
2022-08-24T19:12:09.554Z,26.50
2022-08-24T19:14:38.589Z,26.40
2022-08-24T19:17:07.466Z,26.20
2022-08-24T19:19:38.514Z,25.90
2022-08-24T19:22:09.000Z,25.90
2022-08-24T19:24:39.817Z,25.80
2022-08-24T19:27:10.824Z,25.80
2022-08-24T19:29:55.060Z,25.80
2022-08-24T19:32:29.378Z,25.70
2022-08-24T19:34:59.607Z,25.60
2022-08-24T19:37:28.020Z,25.50
2022-08-24T19:39:58.062Z,25.40
2022-08-24T19:42:27.906Z,25.30
2022-08-24T19:45:16.462Z,25.10
2022-08-24T19:47:44.815Z,25.10
2022-08-24T19:50:14.849Z,25.00
2022-08-24T19:52:52.156Z,25.00
2022-08-24T19:55:21.943Z,24.80
2022-08-24T19:57:51.811Z,24.70
2022-08-24T20:00:27.649Z,24.70
2022-08-24T20:02:58.267Z,24.70
2022-08-24T20:05:29.390Z,24.70
2022-08-24T20:07:59.063Z,24.70
2022-08-24T20:10:29.316Z,24.80
2022-08-24T20:12:57.731Z,24.80
2022-08-24T20:15:27.009Z,25.00
2022-08-24T20:17:57.776Z,25.10
2022-08-24T20:20:27.954Z,25.10
2022-08-24T20:22:59.042Z,24.90
2022-08-24T20:25:29.247Z,24.80
2022-08-24T20:28:25.365Z,24.90
2022-08-24T20:30:51.251Z,24.90
2022-08-24T20:33:21.611Z,24.80
2022-08-24T20:35:50.721Z,24.60
2022-08-24T20:38:21.333Z,24.50
2022-08-24T20:40:52.243Z,24.40
2022-08-24T20:43:20.826Z,24.20
2022-08-24T20:45:52.859Z,24.20
2022-08-24T20:48:28.016Z,24.20
2022-08-24T20:50:56.923Z,24.10
2022-08-24T20:53:26.827Z,24.10
2022-08-24T20:55:58.103Z,24.00
2022-08-24T20:58:27.314Z,24.00
2022-08-24T21:00:56.789Z,23.90
2022-08-24T21:03:25.346Z,23.90
2022-08-24T21:05:54.141Z,23.80
2022-08-24T21:08:22.962Z,23.70
2022-08-24T21:10:51.605Z,23.60
2022-08-24T21:13:21.811Z,23.50
2022-08-24T21:15:52.406Z,23.50
2022-08-24T21:18:26.984Z,23.40
2022-08-24T21:21:03.868Z,23.40
2022-08-24T21:23:34.034Z,23.40
2022-08-24T21:26:03.122Z,23.70
2022-08-24T21:28:33.419Z,23.80
2022-08-24T21:31:06.399Z,23.90
2022-08-24T21:33:52.486Z,24.20
2022-08-24T21:36:23.556Z,24.20
2022-08-24T21:38:54.461Z,24.20
2022-08-24T21:41:24.291Z,24.30
2022-08-24T21:43:53.960Z,24.40
2022-08-24T21:46:25.023Z,24.60
2022-08-24T21:48:53.251Z,24.60
2022-08-24T21:51:21.626Z,24.60
2022-08-24T21:53:49.923Z,24.30
2022-08-24T21:56:25.530Z,24.20
2022-08-24T21:58:55.512Z,24.20
2022-08-24T22:01:23.901Z,24.20
2022-08-24T22:03:52.173Z,24.20
2022-08-24T22:06:23.113Z,24.30
2022-08-24T22:08:52.356Z,24.30
2022-08-24T22:11:25.269Z,24.20
2022-08-24T22:13:55.829Z,24.00
2022-08-24T22:16:24.933Z,23.90
2022-08-24T22:18:53.243Z,24.10
2022-08-24T22:21:24.570Z,24.00
2022-08-24T22:23:53.067Z,23.90
2022-08-24T22:26:26.105Z,23.80
2022-08-24T22:28:57.008Z,23.70
2022-08-24T22:31:27.781Z,23.60
2022-08-24T22:33:57.481Z,23.50
2022-08-24T22:36:29.171Z,23.30
2022-08-24T22:39:01.361Z,23.20
2022-08-24T22:41:30.847Z,23.20
2022-08-24T22:44:21.125Z,23.20
2022-08-24T22:46:52.028Z,23.10
2022-08-24T22:49:23.284Z,23.10
2022-08-24T22:51:52.206Z,22.80
2022-08-24T22:54:25.668Z,22.80
2022-08-24T22:56:59.240Z,22.60
2022-08-24T22:59:35.523Z,22.50
2022-08-24T23:02:06.370Z,22.40
2022-08-24T23:04:41.178Z,22.30
2022-08-24T23:07:12.420Z,22.10
2022-08-24T23:09:44.693Z,22.10
2022-08-24T23:12:18.911Z,22.00
2022-08-24T23:14:50.342Z,21.70
2022-08-24T23:17:19.612Z,21.60
2022-08-24T23:20:10.469Z,21.60
2022-08-24T23:22:41.642Z,21.70
2022-08-24T23:25:13.386Z,21.70
2022-08-24T23:27:44.513Z,21.50
2022-08-24T23:30:16.616Z,21.60
2022-08-24T23:32:45.760Z,21.60
2022-08-24T23:35:17.557Z,21.50
2022-08-24T23:45:28.259Z,21.40
2022-08-24T23:47:58.964Z,21.40
2022-08-24T23:50:27.742Z,21.50
2022-08-24T23:52:58.334Z,21.40
2022-08-24T23:55:28.549Z,21.30
2022-08-24T23:58:03.532Z,21.30
